sensor_id;sensor_type;location;lat;lon;timestamp;temperature;humidity
78733;DHT22;68056;52.530;5.454;2023-03-14T00:00:12;11.10;64.70
78733;DHT22;68056;52.530;5.454;2023-03-14T00:02:38;11.10;64.70
78733;DHT22;68056;52.530;5.454;2023-03-14T00:05:04;11.10;64.70
78733;DHT22;68056;52.530;5.454;2023-03-14T00:07:35;11.10;64.70
78733;DHT22;68056;52.530;5.454;2023-03-14T00:10:08;11.00;64.70
78733;DHT22;68056;52.530;5.454;2023-03-14T00:12:34;11.00;64.80
78733;DHT22;68056;52.530;5.454;2023-03-14T00:15:00;10.90;64.80
78733;DHT22;68056;52.530;5.454;2023-03-14T00:17:28;10.90;64.90
78733;DHT22;68056;52.530;5.454;2023-03-14T00:19:54;10.90;65.00
78733;DHT22;68056;52.530;5.454;2023-03-14T00:22:21;10.80;65.10
78733;DHT22;68056;52.530;5.454;2023-03-14T00:24:47;10.80;65.10
78733;DHT22;68056;52.530;5.454;2023-03-14T00:27:12;10.80;65.30
78733;DHT22;68056;52.530;5.454;2023-03-14T00:29:38;10.80;65.30
78733;DHT22;68056;52.530;5.454;2023-03-14T00:32:04;10.80;65.40
78733;DHT22;68056;52.530;5.454;2023-03-14T00:34:30;10.70;65.40
78733;DHT22;68056;52.530;5.454;2023-03-14T00:36:56;10.70;65.50
78733;DHT22;68056;52.530;5.454;2023-03-14T00:39:22;10.70;65.60
78733;DHT22;68056;52.530;5.454;2023-03-14T00:41:47;10.70;65.60
78733;DHT22;68056;52.530;5.454;2023-03-14T00:44:13;10.70;65.70
78733;DHT22;68056;52.530;5.454;2023-03-14T00:46:39;10.70;65.80
78733;DHT22;68056;52.530;5.454;2023-03-14T00:49:04;10.70;65.80
78733;DHT22;68056;52.530;5.454;2023-03-14T00:51:30;10.70;65.80
78733;DHT22;68056;52.530;5.454;2023-03-14T00:53:55;10.70;65.90
78733;DHT22;68056;52.530;5.454;2023-03-14T00:56:21;10.70;65.90
78733;DHT22;68056;52.530;5.454;2023-03-14T00:58:47;10.70;66.00
78733;DHT22;68056;52.530;5.454;2023-03-14T01:01:18;10.70;66.00
78733;DHT22;68056;52.530;5.454;2023-03-14T01:03:44;10.70;66.10
78733;DHT22;68056;52.530;5.454;2023-03-14T01:06:16;10.60;66.20
78733;DHT22;68056;52.530;5.454;2023-03-14T01:08:43;10.60;66.30
78733;DHT22;68056;52.530;5.454;2023-03-14T01:11:14;10.60;66.30
78733;DHT22;68056;52.530;5.454;2023-03-14T01:13:41;10.60;66.40
78733;DHT22;68056;52.530;5.454;2023-03-14T01:16:08;10.60;66.50
78733;DHT22;68056;52.530;5.454;2023-03-14T01:18:35;10.50;66.50
78733;DHT22;68056;52.530;5.454;2023-03-14T01:21:02;10.60;66.50
78733;DHT22;68056;52.530;5.454;2023-03-14T01:23:28;10.60;66.50
78733;DHT22;68056;52.530;5.454;2023-03-14T01:25:54;10.60;66.50
78733;DHT22;68056;52.530;5.454;2023-03-14T01:28:20;10.50;66.50
78733;DHT22;68056;52.530;5.454;2023-03-14T01:30:45;10.50;66.50
78733;DHT22;68056;52.530;5.454;2023-03-14T01:33:11;10.60;66.40
78733;DHT22;68056;52.530;5.454;2023-03-14T01:35:38;10.50;66.50
78733;DHT22;68056;52.530;5.454;2023-03-14T01:38:04;10.50;66.50
78733;DHT22;68056;52.530;5.454;2023-03-14T01:40:29;10.50;66.50
78733;DHT22;68056;52.530;5.454;2023-03-14T01:42:57;10.50;66.50
78733;DHT22;68056;52.530;5.454;2023-03-14T01:48:30;10.50;66.50
78733;DHT22;68056;52.530;5.454;2023-03-14T01:50:57;10.50;66.70
78733;DHT22;68056;52.530;5.454;2023-03-14T01:53:24;10.50;67.00
78733;DHT22;68056;52.530;5.454;2023-03-14T01:55:52;10.40;67.30
78733;DHT22;68056;52.530;5.454;2023-03-14T01:58:18;10.30;67.70
78733;DHT22;68056;52.530;5.454;2023-03-14T02:00:45;10.30;68.10
78733;DHT22;68056;52.530;5.454;2023-03-14T02:03:15;10.20;68.50
78733;DHT22;68056;52.530;5.454;2023-03-14T02:05:42;10.10;68.90
78733;DHT22;68056;52.530;5.454;2023-03-14T02:08:14;10.00;69.20
78733;DHT22;68056;52.530;5.454;2023-03-14T02:10:43;10.00;69.50
78733;DHT22;68056;52.530;5.454;2023-03-14T02:13:10;9.90;69.70
78733;DHT22;68056;52.530;5.454;2023-03-14T02:15:37;9.80;69.90
78733;DHT22;68056;52.530;5.454;2023-03-14T02:18:04;9.80;70.00
78733;DHT22;68056;52.530;5.454;2023-03-14T02:21:05;9.80;70.10
78733;DHT22;68056;52.530;5.454;2023-03-14T02:26:11;9.70;70.30
78733;DHT22;68056;52.530;5.454;2023-03-14T02:28:38;9.70;70.30
78733;DHT22;68056;52.530;5.454;2023-03-14T02:31:04;9.70;70.20
78733;DHT22;68056;52.530;5.454;2023-03-14T02:33:30;9.70;70.20
78733;DHT22;68056;52.530;5.454;2023-03-14T02:36:01;9.70;70.30
78733;DHT22;68056;52.530;5.454;2023-03-14T02:38:37;9.80;70.30
78733;DHT22;68056;52.530;5.454;2023-03-14T02:41:05;9.80;70.30
78733;DHT22;68056;52.530;5.454;2023-03-14T02:43:31;9.80;70.40
78733;DHT22;68056;52.530;5.454;2023-03-14T02:45:56;9.80;70.30
78733;DHT22;68056;52.530;5.454;2023-03-14T02:48:30;9.80;70.50
78733;DHT22;68056;52.530;5.454;2023-03-14T02:50:59;9.70;70.40
78733;DHT22;68056;52.530;5.454;2023-03-14T02:53:28;9.80;70.50
78733;DHT22;68056;52.530;5.454;2023-03-14T02:55:54;9.70;70.60
78733;DHT22;68056;52.530;5.454;2023-03-14T02:58:20;9.70;70.70
78733;DHT22;68056;52.530;5.454;2023-03-14T03:00:46;9.70;70.70
78733;DHT22;68056;52.530;5.454;2023-03-14T03:03:12;9.70;70.70
78733;DHT22;68056;52.530;5.454;2023-03-14T03:05:37;9.70;70.70
78733;DHT22;68056;52.530;5.454;2023-03-14T03:08:04;9.70;70.90
78733;DHT22;68056;52.530;5.454;2023-03-14T03:10:30;9.70;70.90
78733;DHT22;68056;52.530;5.454;2023-03-14T03:12:56;9.70;71.00
78733;DHT22;68056;52.530;5.454;2023-03-14T03:15:22;9.70;71.00
78733;DHT22;68056;52.530;5.454;2023-03-14T03:17:48;9.60;71.10
78733;DHT22;68056;52.530;5.454;2023-03-14T03:20:14;9.60;71.30
78733;DHT22;68056;52.530;5.454;2023-03-14T03:22:39;9.60;71.40
78733;DHT22;68056;52.530;5.454;2023-03-14T03:25:06;9.60;71.50
78733;DHT22;68056;52.530;5.454;2023-03-14T03:27:34;9.60;71.60
78733;DHT22;68056;52.530;5.454;2023-03-14T03:30:00;9.60;71.60
78733;DHT22;68056;52.530;5.454;2023-03-14T03:32:26;9.50;71.70
78733;DHT22;68056;52.530;5.454;2023-03-14T03:34:55;9.50;71.70
78733;DHT22;68056;52.530;5.454;2023-03-14T03:37:21;9.50;71.80
78733;DHT22;68056;52.530;5.454;2023-03-14T03:39:46;9.50;71.90
78733;DHT22;68056;52.530;5.454;2023-03-14T03:42:12;9.50;71.90
78733;DHT22;68056;52.530;5.454;2023-03-14T03:44:37;9.50;71.90
78733;DHT22;68056;52.530;5.454;2023-03-14T03:47:03;9.40;71.80
78733;DHT22;68056;52.530;5.454;2023-03-14T03:49:32;9.50;71.90
78733;DHT22;68056;52.530;5.454;2023-03-14T03:51:59;9.40;71.90
78733;DHT22;68056;52.530;5.454;2023-03-14T03:54:25;9.40;71.90
78733;DHT22;68056;52.530;5.454;2023-03-14T03:56:50;9.50;71.80
78733;DHT22;68056;52.530;5.454;2023-03-14T03:59:16;9.50;71.80
78733;DHT22;68056;52.530;5.454;2023-03-14T04:01:42;9.50;71.60
78733;DHT22;68056;52.530;5.454;2023-03-14T04:04:07;9.50;71.60
78733;DHT22;68056;52.530;5.454;2023-03-14T04:06:33;9.50;71.60
78733;DHT22;68056;52.530;5.454;2023-03-14T04:08:59;9.50;71.50
78733;DHT22;68056;52.530;5.454;2023-03-14T04:11:24;9.60;71.40
78733;DHT22;68056;52.530;5.454;2023-03-14T04:13:50;9.60;71.40
78733;DHT22;68056;52.530;5.454;2023-03-14T04:16:24;9.60;71.30
78733;DHT22;68056;52.530;5.454;2023-03-14T04:18:50;9.60;71.30
78733;DHT22;68056;52.530;5.454;2023-03-14T04:21:16;9.60;71.20
78733;DHT22;68056;52.530;5.454;2023-03-14T04:23:42;9.60;71.20
78733;DHT22;68056;52.530;5.454;2023-03-14T04:26:08;9.60;71.20
78733;DHT22;68056;52.530;5.454;2023-03-14T04:28:33;9.60;71.20
78733;DHT22;68056;52.530;5.454;2023-03-14T04:31:06;9.60;71.30
78733;DHT22;68056;52.530;5.454;2023-03-14T04:33:31;9.60;71.30
78733;DHT22;68056;52.530;5.454;2023-03-14T04:35:58;9.60;71.20
78733;DHT22;68056;52.530;5.454;2023-03-14T04:38:24;9.60;71.20
78733;DHT22;68056;52.530;5.454;2023-03-14T04:40:49;9.70;71.30
78733;DHT22;68056;52.530;5.454;2023-03-14T04:43:15;9.70;71.30
78733;DHT22;68056;52.530;5.454;2023-03-14T04:45:43;9.70;71.40
78733;DHT22;68056;52.530;5.454;2023-03-14T04:48:09;9.60;71.50
78733;DHT22;68056;52.530;5.454;2023-03-14T04:50:35;9.60;71.80
78733;DHT22;68056;52.530;5.454;2023-03-14T04:53:01;9.50;72.00
78733;DHT22;68056;52.530;5.454;2023-03-14T04:55:26;9.50;72.20
78733;DHT22;68056;52.530;5.454;2023-03-14T04:57:52;9.40;72.50
78733;DHT22;68056;52.530;5.454;2023-03-14T05:00:18;9.40;72.70
78733;DHT22;68056;52.530;5.454;2023-03-14T05:02:44;9.40;72.90
78733;DHT22;68056;52.530;5.454;2023-03-14T05:05:10;9.20;73.00
78733;DHT22;68056;52.530;5.454;2023-03-14T05:07:36;9.20;73.20
78733;DHT22;68056;52.530;5.454;2023-03-14T05:10:02;9.20;73.30
78733;DHT22;68056;52.530;5.454;2023-03-14T05:12:27;9.20;73.50
78733;DHT22;68056;52.530;5.454;2023-03-14T05:14:53;9.20;73.50
78733;DHT22;68056;52.530;5.454;2023-03-14T05:17:18;9.20;73.50
78733;DHT22;68056;52.530;5.454;2023-03-14T05:19:44;9.20;73.50
78733;DHT22;68056;52.530;5.454;2023-03-14T05:22:11;9.20;73.70
78733;DHT22;68056;52.530;5.454;2023-03-14T05:24:37;9.20;73.70
78733;DHT22;68056;52.530;5.454;2023-03-14T05:27:03;9.10;73.80
78733;DHT22;68056;52.530;5.454;2023-03-14T05:29:28;9.10;73.80
78733;DHT22;68056;52.530;5.454;2023-03-14T05:31:54;9.10;73.90
78733;DHT22;68056;52.530;5.454;2023-03-14T05:34:19;9.10;73.90
78733;DHT22;68056;52.530;5.454;2023-03-14T05:36:45;9.10;74.00
78733;DHT22;68056;52.530;5.454;2023-03-14T05:39:11;9.10;74.10
78733;DHT22;68056;52.530;5.454;2023-03-14T05:41:36;9.10;74.10
78733;DHT22;68056;52.530;5.454;2023-03-14T05:44:02;9.10;74.10
78733;DHT22;68056;52.530;5.454;2023-03-14T05:46:28;9.10;74.10
78733;DHT22;68056;52.530;5.454;2023-03-14T05:48:56;9.00;74.00
78733;DHT22;68056;52.530;5.454;2023-03-14T05:51:22;9.10;74.10
78733;DHT22;68056;52.530;5.454;2023-03-14T05:53:47;9.10;74.10
78733;DHT22;68056;52.530;5.454;2023-03-14T05:56:13;9.00;74.10
78733;DHT22;68056;52.530;5.454;2023-03-14T05:58:38;9.00;74.10
78733;DHT22;68056;52.530;5.454;2023-03-14T06:01:05;9.00;74.10
78733;DHT22;68056;52.530;5.454;2023-03-14T06:03:31;9.00;74.20
78733;DHT22;68056;52.530;5.454;2023-03-14T06:05:57;9.00;74.20
78733;DHT22;68056;52.530;5.454;2023-03-14T06:08:23;8.90;74.30
78733;DHT22;68056;52.530;5.454;2023-03-14T06:10:48;8.90;74.30
78733;DHT22;68056;52.530;5.454;2023-03-14T06:13:14;8.90;74.40
78733;DHT22;68056;52.530;5.454;2023-03-14T06:15:41;8.80;74.30
78733;DHT22;68056;52.530;5.454;2023-03-14T06:18:06;8.80;74.20
78733;DHT22;68056;52.530;5.454;2023-03-14T06:20:32;8.70;74.00
78733;DHT22;68056;52.530;5.454;2023-03-14T06:22:59;8.60;74.00
78733;DHT22;68056;52.530;5.454;2023-03-14T06:25:24;8.50;74.00
78733;DHT22;68056;52.530;5.454;2023-03-14T06:27:50;8.40;74.00
78733;DHT22;68056;52.530;5.454;2023-03-14T06:30:16;8.40;73.90
78733;DHT22;68056;52.530;5.454;2023-03-14T06:32:41;8.30;73.80
78733;DHT22;68056;52.530;5.454;2023-03-14T06:35:07;8.20;73.80
78733;DHT22;68056;52.530;5.454;2023-03-14T06:37:33;8.20;73.80
78733;DHT22;68056;52.530;5.454;2023-03-14T06:39:59;8.10;73.80
78733;DHT22;68056;52.530;5.454;2023-03-14T06:42:25;8.00;73.70
78733;DHT22;68056;52.530;5.454;2023-03-14T06:44:50;8.00;73.70
78733;DHT22;68056;52.530;5.454;2023-03-14T06:47:16;8.00;73.60
78733;DHT22;68056;52.530;5.454;2023-03-14T06:49:41;7.90;73.60
78733;DHT22;68056;52.530;5.454;2023-03-14T06:52:07;7.80;73.60
78733;DHT22;68056;52.530;5.454;2023-03-14T06:54:33;7.80;73.50
78733;DHT22;68056;52.530;5.454;2023-03-14T06:56:58;7.80;73.50
78733;DHT22;68056;52.530;5.454;2023-03-14T06:59:24;7.80;73.50
78733;DHT22;68056;52.530;5.454;2023-03-14T07:01:50;7.80;73.40
78733;DHT22;68056;52.530;5.454;2023-03-14T07:04:16;7.80;73.40
78733;DHT22;68056;52.530;5.454;2023-03-14T07:06:42;7.80;73.30
78733;DHT22;68056;52.530;5.454;2023-03-14T07:09:10;7.60;73.20
78733;DHT22;68056;52.530;5.454;2023-03-14T07:11:36;7.60;73.00
78733;DHT22;68056;52.530;5.454;2023-03-14T07:14:02;7.50;73.00
78733;DHT22;68056;52.530;5.454;2023-03-14T07:16:28;7.40;73.00
78733;DHT22;68056;52.530;5.454;2023-03-14T07:18:57;7.20;73.00
78733;DHT22;68056;52.530;5.454;2023-03-14T07:21:22;7.20;73.00
78733;DHT22;68056;52.530;5.454;2023-03-14T07:23:48;7.10;72.90
78733;DHT22;68056;52.530;5.454;2023-03-14T07:26:13;7.00;72.80
78733;DHT22;68056;52.530;5.454;2023-03-14T07:28:39;7.00;72.80
78733;DHT22;68056;52.530;5.454;2023-03-14T07:31:05;6.90;72.70
78733;DHT22;68056;52.530;5.454;2023-03-14T07:33:31;6.80;72.80
78733;DHT22;68056;52.530;5.454;2023-03-14T07:35:56;6.80;72.70
78733;DHT22;68056;52.530;5.454;2023-03-14T07:38:22;6.80;72.70
78733;DHT22;68056;52.530;5.454;2023-03-14T07:40:47;6.70;72.60
78733;DHT22;68056;52.530;5.454;2023-03-14T07:43:13;6.70;72.50
78733;DHT22;68056;52.530;5.454;2023-03-14T07:45:38;6.60;72.30
78733;DHT22;68056;52.530;5.454;2023-03-14T07:48:04;6.50;72.40
78733;DHT22;68056;52.530;5.454;2023-03-14T07:50:29;6.50;72.40
78733;DHT22;68056;52.530;5.454;2023-03-14T07:52:55;6.50;72.30
78733;DHT22;68056;52.530;5.454;2023-03-14T07:55:21;6.50;72.30
78733;DHT22;68056;52.530;5.454;2023-03-14T07:57:47;6.50;72.30
78733;DHT22;68056;52.530;5.454;2023-03-14T08:00:13;6.50;72.10
78733;DHT22;68056;52.530;5.454;2023-03-14T08:02:42;6.50;72.00
78733;DHT22;68056;52.530;5.454;2023-03-14T08:05:08;6.60;71.90
78733;DHT22;68056;52.530;5.454;2023-03-14T08:07:34;6.70;71.80
78733;DHT22;68056;52.530;5.454;2023-03-14T08:10:00;6.70;71.70
78733;DHT22;68056;52.530;5.454;2023-03-14T08:12:25;6.70;71.60
78733;DHT22;68056;52.530;5.454;2023-03-14T08:14:51;6.70;71.60
78733;DHT22;68056;52.530;5.454;2023-03-14T08:17:16;6.70;71.50
78733;DHT22;68056;52.530;5.454;2023-03-14T08:19:42;6.70;71.50
78733;DHT22;68056;52.530;5.454;2023-03-14T08:22:07;6.70;71.40
78733;DHT22;68056;52.530;5.454;2023-03-14T08:24:33;6.80;71.40
78733;DHT22;68056;52.530;5.454;2023-03-14T08:26:59;6.80;71.20
78733;DHT22;68056;52.530;5.454;2023-03-14T08:29:25;6.80;71.20
78733;DHT22;68056;52.530;5.454;2023-03-14T08:31:50;6.80;71.10
78733;DHT22;68056;52.530;5.454;2023-03-14T08:34:16;6.70;71.10
78733;DHT22;68056;52.530;5.454;2023-03-14T08:36:42;6.80;71.00
78733;DHT22;68056;52.530;5.454;2023-03-14T08:39:08;6.80;70.90
78733;DHT22;68056;52.530;5.454;2023-03-14T08:41:34;6.80;70.80
78733;DHT22;68056;52.530;5.454;2023-03-14T08:44:06;6.80;70.80
78733;DHT22;68056;52.530;5.454;2023-03-14T08:46:31;6.90;70.70
78733;DHT22;68056;52.530;5.454;2023-03-14T08:48:57;6.90;70.60
78733;DHT22;68056;52.530;5.454;2023-03-14T08:51:23;6.90;70.50
78733;DHT22;68056;52.530;5.454;2023-03-14T08:53:48;6.90;70.40
78733;DHT22;68056;52.530;5.454;2023-03-14T08:56:14;7.00;70.40
78733;DHT22;68056;52.530;5.454;2023-03-14T08:58:40;7.00;70.40
78733;DHT22;68056;52.530;5.454;2023-03-14T09:01:08;7.10;70.30
78733;DHT22;68056;52.530;5.454;2023-03-14T09:03:34;7.20;70.20
78733;DHT22;68056;52.530;5.454;2023-03-14T09:06:04;7.20;70.10
78733;DHT22;68056;52.530;5.454;2023-03-14T09:08:31;7.20;69.90
78733;DHT22;68056;52.530;5.454;2023-03-14T09:10:56;7.10;69.90
78733;DHT22;68056;52.530;5.454;2023-03-14T09:13:22;7.20;69.90
78733;DHT22;68056;52.530;5.454;2023-03-14T09:15:52;7.20;69.80
78733;DHT22;68056;52.530;5.454;2023-03-14T09:18:18;7.20;69.60
78733;DHT22;68056;52.530;5.454;2023-03-14T09:20:44;7.20;69.50
78733;DHT22;68056;52.530;5.454;2023-03-14T09:23:09;7.20;69.50
78733;DHT22;68056;52.530;5.454;2023-03-14T09:25:35;7.20;69.50
78733;DHT22;68056;52.530;5.454;2023-03-14T09:28:00;7.20;69.50
78733;DHT22;68056;52.530;5.454;2023-03-14T09:30:26;7.20;69.40
78733;DHT22;68056;52.530;5.454;2023-03-14T09:32:52;7.20;69.30
78733;DHT22;68056;52.530;5.454;2023-03-14T09:35:17;7.20;69.20
78733;DHT22;68056;52.530;5.454;2023-03-14T09:37:43;7.20;69.10
78733;DHT22;68056;52.530;5.454;2023-03-14T09:40:13;7.30;69.00
78733;DHT22;68056;52.530;5.454;2023-03-14T09:42:39;7.30;68.80
78733;DHT22;68056;52.530;5.454;2023-03-14T09:45:11;7.20;68.70
78733;DHT22;68056;52.530;5.454;2023-03-14T09:47:40;7.00;68.80
78733;DHT22;68056;52.530;5.454;2023-03-14T09:50:13;7.00;68.90
78733;DHT22;68056;52.530;5.454;2023-03-14T09:52:43;7.00;69.00
78733;DHT22;68056;52.530;5.454;2023-03-14T09:55:22;7.00;69.00
78733;DHT22;68056;52.530;5.454;2023-03-14T09:57:49;7.10;68.70
78733;DHT22;68056;52.530;5.454;2023-03-14T10:00:16;7.20;68.60
78733;DHT22;68056;52.530;5.454;2023-03-14T10:02:53;7.20;68.50
78733;DHT22;68056;52.530;5.454;2023-03-14T10:05:23;7.20;68.30
78733;DHT22;68056;52.530;5.454;2023-03-14T10:07:49;7.20;68.20
78733;DHT22;68056;52.530;5.454;2023-03-14T10:10:19;7.20;68.00
78733;DHT22;68056;52.530;5.454;2023-03-14T10:12:47;7.20;68.00
78733;DHT22;68056;52.530;5.454;2023-03-14T10:15:14;7.30;67.90
78733;DHT22;68056;52.530;5.454;2023-03-14T10:17:52;7.30;67.50
78733;DHT22;68056;52.530;5.454;2023-03-14T10:20:33;7.30;67.10
78733;DHT22;68056;52.530;5.454;2023-03-14T10:25:48;7.40;66.70
78733;DHT22;68056;52.530;5.454;2023-03-14T10:30:50;7.50;66.20
78733;DHT22;68056;52.530;5.454;2023-03-14T10:33:22;7.60;66.10
78733;DHT22;68056;52.530;5.454;2023-03-14T10:36:03;7.70;66.00
78733;DHT22;68056;52.530;5.454;2023-03-14T10:38:38;7.90;65.80
78733;DHT22;68056;52.530;5.454;2023-03-14T10:41:24;8.10;65.30
78733;DHT22;68056;52.530;5.454;2023-03-14T10:43:56;8.50;64.60
78733;DHT22;68056;52.530;5.454;2023-03-14T10:46:23;8.80;64.30
78733;DHT22;68056;52.530;5.454;2023-03-14T10:48:49;9.20;63.70
78733;DHT22;68056;52.530;5.454;2023-03-14T10:53:47;10.30;62.20
78733;DHT22;68056;52.530;5.454;2023-03-14T10:56:21;10.80;61.60
78733;DHT22;68056;52.530;5.454;2023-03-14T10:58:52;11.10;60.70
78733;DHT22;68056;52.530;5.454;2023-03-14T11:01:41;11.30;60.30
78733;DHT22;68056;52.530;5.454;2023-03-14T11:04:39;11.40;59.50
78733;DHT22;68056;52.530;5.454;2023-03-14T11:07:21;11.70;59.00
78733;DHT22;68056;52.530;5.454;2023-03-14T11:12:55;12.00;58.00
78733;DHT22;68056;52.530;5.454;2023-03-14T11:15:37;12.20;57.70
78733;DHT22;68056;52.530;5.454;2023-03-14T11:21:18;12.70;57.10
78733;DHT22;68056;52.530;5.454;2023-03-14T11:32:10;12.70;56.40
78733;DHT22;68056;52.530;5.454;2023-03-14T11:34:50;12.80;56.60
78733;DHT22;68056;52.530;5.454;2023-03-14T11:37:21;13.00;56.00
78733;DHT22;68056;52.530;5.454;2023-03-14T11:40:28;13.20;55.80
78733;DHT22;68056;52.530;5.454;2023-03-14T11:43:04;13.20;55.60
78733;DHT22;68056;52.530;5.454;2023-03-14T11:45:35;13.30;55.20
78733;DHT22;68056;52.530;5.454;2023-03-14T11:50:57;13.30;55.00
78733;DHT22;68056;52.530;5.454;2023-03-14T11:53:45;13.50;54.50
78733;DHT22;68056;52.530;5.454;2023-03-14T11:56:31;13.60;54.10
78733;DHT22;68056;52.530;5.454;2023-03-14T11:59:03;13.70;53.70
78733;DHT22;68056;52.530;5.454;2023-03-14T12:01:59;13.90;53.90
78733;DHT22;68056;52.530;5.454;2023-03-14T12:04:54;14.00;53.50
78733;DHT22;68056;52.530;5.454;2023-03-14T12:07:28;14.30;53.00
78733;DHT22;68056;52.530;5.454;2023-03-14T12:09:55;14.40;53.00
78733;DHT22;68056;52.530;5.454;2023-03-14T12:12:24;14.50;53.20
78733;DHT22;68056;52.530;5.454;2023-03-14T12:14:58;14.80;52.80
78733;DHT22;68056;52.530;5.454;2023-03-14T12:17:27;15.00;52.50
78733;DHT22;68056;52.530;5.454;2023-03-14T12:22:55;15.30;52.40
78733;DHT22;68056;52.530;5.454;2023-03-14T12:25:24;15.30;52.20
78733;DHT22;68056;52.530;5.454;2023-03-14T12:30:38;15.00;52.30
78733;DHT22;68056;52.530;5.454;2023-03-14T12:33:27;14.80;52.40
78733;DHT22;68056;52.530;5.454;2023-03-14T12:35:58;14.70;52.20
78733;DHT22;68056;52.530;5.454;2023-03-14T12:43:54;14.20;51.20
78733;DHT22;68056;52.530;5.454;2023-03-14T12:46:24;14.20;51.20
78733;DHT22;68056;52.530;5.454;2023-03-14T12:55:14;14.50;50.80
78733;DHT22;68056;52.530;5.454;2023-03-14T12:57:37;14.60;50.50
78733;DHT22;68056;52.530;5.454;2023-03-14T13:00:20;14.60;50.30
78733;DHT22;68056;52.530;5.454;2023-03-14T13:02:47;14.60;50.10
78733;DHT22;68056;52.530;5.454;2023-03-14T13:05:23;14.60;49.60
78733;DHT22;68056;52.530;5.454;2023-03-14T13:10:21;14.70;49.40
78733;DHT22;68056;52.530;5.454;2023-03-14T13:13:22;14.40;49.70
78733;DHT22;68056;52.530;5.454;2023-03-14T13:15:49;14.20;49.90
78733;DHT22;68056;52.530;5.454;2023-03-14T13:18:40;13.60;50.40
78733;DHT22;68056;52.530;5.454;2023-03-14T13:21:21;13.10;50.70
78733;DHT22;68056;52.530;5.454;2023-03-14T13:24:00;12.80;51.00
78733;DHT22;68056;52.530;5.454;2023-03-14T13:26:51;12.70;50.90
78733;DHT22;68056;52.530;5.454;2023-03-14T13:29:32;12.80;50.50
78733;DHT22;68056;52.530;5.454;2023-03-14T13:32:13;13.00;50.10
78733;DHT22;68056;52.530;5.454;2023-03-14T13:34:41;13.20;49.80
78733;DHT22;68056;52.530;5.454;2023-03-14T13:37:22;13.50;49.50
78733;DHT22;68056;52.530;5.454;2023-03-14T13:39:56;13.60;49.10
78733;DHT22;68056;52.530;5.454;2023-03-14T13:42:26;13.60;48.90
78733;DHT22;68056;52.530;5.454;2023-03-14T13:44:54;13.80;49.10
78733;DHT22;68056;52.530;5.454;2023-03-14T13:47:22;14.00;49.10
78733;DHT22;68056;52.530;5.454;2023-03-14T13:49:49;14.10;48.70
78733;DHT22;68056;52.530;5.454;2023-03-14T13:52:35;14.10;48.70
78733;DHT22;68056;52.530;5.454;2023-03-14T13:55:02;14.10;48.80
78733;DHT22;68056;52.530;5.454;2023-03-14T13:57:46;14.10;48.80
78733;DHT22;68056;52.530;5.454;2023-03-14T14:00:23;14.30;48.60
78733;DHT22;68056;52.530;5.454;2023-03-14T14:02:56;14.50;48.50
78733;DHT22;68056;52.530;5.454;2023-03-14T14:05:23;14.60;47.90
78733;DHT22;68056;52.530;5.454;2023-03-14T14:07:50;14.30;47.50
78733;DHT22;68056;52.530;5.454;2023-03-14T14:10:17;13.90;47.90
78733;DHT22;68056;52.530;5.454;2023-03-14T14:12:59;13.50;48.00
78733;DHT22;68056;52.530;5.454;2023-03-14T14:15:28;13.10;48.20
78733;DHT22;68056;52.530;5.454;2023-03-14T14:17:59;12.70;48.60
78733;DHT22;68056;52.530;5.454;2023-03-14T14:20:29;12.40;48.80
78733;DHT22;68056;52.530;5.454;2023-03-14T14:22:58;12.30;48.90
78733;DHT22;68056;52.530;5.454;2023-03-14T14:25:24;12.30;49.00
78733;DHT22;68056;52.530;5.454;2023-03-14T14:27:50;12.50;49.10
78733;DHT22;68056;52.530;5.454;2023-03-14T14:32:46;12.50;48.80
78733;DHT22;68056;52.530;5.454;2023-03-14T14:35:30;12.30;48.50
78733;DHT22;68056;52.530;5.454;2023-03-14T14:37:56;12.10;48.60
78733;DHT22;68056;52.530;5.454;2023-03-14T14:40:25;12.20;48.70
78733;DHT22;68056;52.530;5.454;2023-03-14T14:42:51;12.20;48.60
78733;DHT22;68056;52.530;5.454;2023-03-14T14:45:25;12.20;48.80
78733;DHT22;68056;52.530;5.454;2023-03-14T14:48:08;12.30;48.80
78733;DHT22;68056;52.530;5.454;2023-03-14T14:50:38;12.30;48.80
78733;DHT22;68056;52.530;5.454;2023-03-14T14:53:40;12.20;48.90
78733;DHT22;68056;52.530;5.454;2023-03-14T14:56:24;12.10;48.60
78733;DHT22;68056;52.530;5.454;2023-03-14T14:58:57;11.70;48.20
78733;DHT22;68056;52.530;5.454;2023-03-14T15:01:24;11.50;48.70
78733;DHT22;68056;52.530;5.454;2023-03-14T15:03:53;11.60;49.00
78733;DHT22;68056;52.530;5.454;2023-03-14T15:06:19;11.70;49.20
78733;DHT22;68056;52.530;5.454;2023-03-14T15:08:47;11.70;49.10
78733;DHT22;68056;52.530;5.454;2023-03-14T15:13:42;11.60;49.30
78733;DHT22;68056;52.530;5.454;2023-03-14T15:16:11;11.30;49.40
78733;DHT22;68056;52.530;5.454;2023-03-14T15:18:37;10.90;49.80
78733;DHT22;68056;52.530;5.454;2023-03-14T15:21:03;10.80;50.00
78733;DHT22;68056;52.530;5.454;2023-03-14T15:23:29;10.70;50.20
78733;DHT22;68056;52.530;5.454;2023-03-14T15:25:54;10.60;50.40
78733;DHT22;68056;52.530;5.454;2023-03-14T15:28:28;10.60;50.50
78733;DHT22;68056;52.530;5.454;2023-03-14T15:30:58;10.50;50.70
78733;DHT22;68056;52.530;5.454;2023-03-14T15:33:25;10.20;50.80
78733;DHT22;68056;52.530;5.454;2023-03-14T15:35:51;10.00;50.90
78733;DHT22;68056;52.530;5.454;2023-03-14T15:38:19;9.70;51.20
78733;DHT22;68056;52.530;5.454;2023-03-14T15:40:50;9.50;51.70
78733;DHT22;68056;52.530;5.454;2023-03-14T15:43:16;9.40;51.90
78733;DHT22;68056;52.530;5.454;2023-03-14T15:45:42;9.40;52.10
78733;DHT22;68056;52.530;5.454;2023-03-14T15:48:16;9.40;52.20
78733;DHT22;68056;52.530;5.454;2023-03-14T15:50:43;9.30;52.10
78733;DHT22;68056;52.530;5.454;2023-03-14T15:53:09;9.20;52.00
78733;DHT22;68056;52.530;5.454;2023-03-14T15:55:34;9.20;52.00
78733;DHT22;68056;52.530;5.454;2023-03-14T15:58:00;9.20;51.80
78733;DHT22;68056;52.530;5.454;2023-03-14T16:00:28;9.00;51.60
78733;DHT22;68056;52.530;5.454;2023-03-14T16:02:54;8.90;51.50
78733;DHT22;68056;52.530;5.454;2023-03-14T16:05:21;8.80;51.60
78733;DHT22;68056;52.530;5.454;2023-03-14T16:07:47;8.60;51.70
78733;DHT22;68056;52.530;5.454;2023-03-14T16:10:14;8.60;51.80
78733;DHT22;68056;52.530;5.454;2023-03-14T16:12:40;8.50;51.90
78733;DHT22;68056;52.530;5.454;2023-03-14T16:15:07;8.40;52.10
78733;DHT22;68056;52.530;5.454;2023-03-14T16:17:33;8.30;52.20
78733;DHT22;68056;52.530;5.454;2023-03-14T16:19:59;8.20;52.40
78733;DHT22;68056;52.530;5.454;2023-03-14T16:22:26;8.20;52.50
78733;DHT22;68056;52.530;5.454;2023-03-14T16:24:52;8.10;52.70
78733;DHT22;68056;52.530;5.454;2023-03-14T16:27:17;8.00;52.90
78733;DHT22;68056;52.530;5.454;2023-03-14T16:29:43;8.00;53.00
78733;DHT22;68056;52.530;5.454;2023-03-14T16:32:09;7.90;53.10
78733;DHT22;68056;52.530;5.454;2023-03-14T16:34:37;7.90;53.40
78733;DHT22;68056;52.530;5.454;2023-03-14T16:37:04;7.80;53.70
78733;DHT22;68056;52.530;5.454;2023-03-14T16:39:30;7.80;53.80
78733;DHT22;68056;52.530;5.454;2023-03-14T16:41:57;7.80;53.90
78733;DHT22;68056;52.530;5.454;2023-03-14T16:44:23;7.70;54.00